createdAt,value
2018-06-13T00:00:03.695Z,1005.72
2018-06-13T00:01:03.717Z,1005.72
2018-06-13T00:02:03.743Z,1005.7
2018-06-13T00:03:03.768Z,1005.71
2018-06-13T00:04:03.790Z,1005.71
2018-06-13T00:05:03.811Z,1005.72
2018-06-13T00:06:03.836Z,1005.68
2018-06-13T00:07:03.860Z,1005.68
2018-06-13T00:08:03.884Z,1005.72
2018-06-13T00:09:03.907Z,1005.71
2018-06-13T00:10:03.931Z,1005.71
2018-06-13T00:11:03.956Z,1005.72
2018-06-13T00:12:03.977Z,1005.71
2018-06-13T00:13:04.005Z,1005.71
2018-06-13T00:14:04.026Z,1005.7
2018-06-13T00:15:04.049Z,1005.65
2018-06-13T00:16:04.073Z,1005.66
2018-06-13T00:17:04.096Z,1005.64
2018-06-13T00:18:04.120Z,1005.67
2018-06-13T00:19:04.143Z,1005.68
2018-06-13T00:21:04.191Z,1005.63
2018-06-13T00:22:04.214Z,1005.6
2018-06-13T00:23:04.237Z,1005.6
2018-06-13T00:24:04.261Z,1005.56
2018-06-13T00:25:04.285Z,1005.56
2018-06-13T00:26:04.316Z,1005.57
2018-06-13T00:27:04.332Z,1005.53
2018-06-13T00:28:04.360Z,1005.58
2018-06-13T00:29:04.379Z,1005.58
2018-06-13T00:30:04.403Z,1005.58
2018-06-13T00:31:04.426Z,1005.53
2018-06-13T00:32:04.450Z,1005.55
2018-06-13T00:33:04.475Z,1005.58
2018-06-13T00:34:04.497Z,1005.55
2018-06-13T00:35:04.524Z,1005.5
2018-06-13T00:37:04.631Z,1005.51
2018-06-13T00:38:04.591Z,1005.53
2018-06-13T00:39:04.615Z,1005.5
2018-06-13T00:40:04.643Z,1005.53
2018-06-13T00:41:04.664Z,1005.56
2018-06-13T00:42:04.689Z,1005.55
2018-06-13T00:43:04.709Z,1005.51
2018-06-13T00:44:04.733Z,1005.5
2018-06-13T00:45:04.756Z,1005.51
2018-06-13T00:46:04.785Z,1005.52
2018-06-13T00:47:04.868Z,1005.55
2018-06-13T00:48:04.829Z,1005.56
2018-06-13T00:49:04.850Z,1005.55
2018-06-13T00:50:04.878Z,1005.53
2018-06-13T00:51:04.898Z,1005.57
2018-06-13T00:53:04.944Z,1005.58
2018-06-13T00:54:04.968Z,1005.57
2018-06-13T00:55:04.996Z,1005.6
2018-06-13T00:56:05.015Z,1005.6
2018-06-13T00:57:05.039Z,1005.59
2018-06-13T00:58:05.063Z,1005.58
2018-06-13T00:59:05.087Z,1005.58
2018-06-13T01:00:05.108Z,1005.58
2018-06-13T01:01:05.133Z,1005.58
2018-06-13T01:02:05.156Z,1005.53
2018-06-13T01:03:05.179Z,1005.57
2018-06-13T01:04:05.203Z,1005.57
2018-06-13T01:05:05.227Z,1005.56
2018-06-13T01:06:05.250Z,1005.56
2018-06-13T01:07:05.273Z,1005.53
2018-06-13T01:09:05.320Z,1005.55
2018-06-13T01:10:05.344Z,1005.55
2018-06-13T01:11:05.369Z,1005.5
2018-06-13T01:12:05.391Z,1005.47
2018-06-13T01:13:05.415Z,1005.46
2018-06-13T01:14:05.437Z,1005.48
2018-06-13T01:15:05.462Z,1005.5
2018-06-13T01:16:05.485Z,1005.47
2018-06-13T01:17:05.509Z,1005.5
2018-06-13T01:18:05.532Z,1005.48
2018-06-13T01:19:05.555Z,1005.5
2018-06-13T01:20:05.579Z,1005.51
2018-06-13T01:21:05.608Z,1005.49
2018-06-13T01:22:05.626Z,1005.49
2018-06-13T01:24:05.675Z,1005.5
2018-06-13T01:25:05.697Z,1005.47
2018-06-13T01:26:05.719Z,1005.51
2018-06-13T01:27:05.748Z,1005.47
2018-06-13T01:28:05.768Z,1005.49
2018-06-13T01:29:05.789Z,1005.47
2018-06-13T01:30:05.814Z,1005.47
2018-06-13T01:31:05.837Z,1005.47
2018-06-13T01:32:05.860Z,1005.45
2018-06-13T01:33:05.884Z,1005.5
2018-06-13T01:34:05.908Z,1005.49
2018-06-13T01:35:05.931Z,1005.44
2018-06-13T01:36:05.954Z,1005.5
2018-06-13T01:37:05.978Z,1005.51
2018-06-13T01:38:06.001Z,1005.49
2018-06-13T01:39:06.025Z,1005.45
2018-06-13T01:40:06.047Z,1005.4
2018-06-13T01:41:06.070Z,1005.44
2018-06-13T01:42:06.095Z,1005.4
2018-06-13T01:43:06.118Z,1005.42
2018-06-13T01:44:06.148Z,1005.42
2018-06-13T01:45:06.165Z,1005.37
2018-06-13T01:46:06.194Z,1005.39
2018-06-13T01:47:06.211Z,1005.39
2018-06-13T01:48:06.236Z,1005.39
2018-06-13T01:49:06.258Z,1005.41
2018-06-13T01:50:06.282Z,1005.38
2018-06-13T01:51:06.304Z,1005.4
2018-06-13T01:52:06.328Z,1005.44
2018-06-13T01:53:06.352Z,1005.44
2018-06-13T01:54:06.374Z,1005.41
2018-06-13T01:56:06.421Z,1005.45
2018-06-13T01:57:06.445Z,1005.42
2018-06-13T01:58:06.468Z,1005.45
2018-06-13T01:59:06.495Z,1005.42
2018-06-13T02:00:06.514Z,1005.46
2018-06-13T02:01:06.538Z,1005.46
2018-06-13T02:02:06.562Z,1005.44
2018-06-13T02:03:06.584Z,1005.44
2018-06-13T02:04:06.614Z,1005.41
2018-06-13T02:05:06.630Z,1005.42
2018-06-13T02:06:06.654Z,1005.41
2018-06-13T02:07:06.677Z,1005.43
2018-06-13T02:08:06.701Z,1005.41
2018-06-13T02:09:06.724Z,1005.46
2018-06-13T02:10:06.747Z,1005.43
2018-06-13T02:12:06.794Z,1005.5
2018-06-13T02:13:06.816Z,1005.61
2018-06-13T02:14:06.840Z,1005.52
2018-06-13T02:15:06.864Z,1005.46
2018-06-13T02:16:06.886Z,1005.47
2018-06-13T02:17:06.909Z,1005.48
2018-06-13T02:18:06.933Z,1005.51
2018-06-13T02:19:06.956Z,1005.48
2018-06-13T02:20:06.979Z,1005.45
2018-06-13T02:21:07.002Z,1005.44
2018-06-13T02:22:07.027Z,1005.48
2018-06-13T02:23:07.050Z,1005.45
2018-06-13T02:24:07.072Z,1005.43
2018-06-13T02:25:07.096Z,1005.39
2018-06-13T02:26:07.119Z,1005.37
2018-06-13T02:28:07.166Z,1005.36
2018-06-13T02:29:07.189Z,1005.38
2018-06-13T02:30:07.222Z,1005.35
2018-06-13T02:31:07.235Z,1005.36
2018-06-13T02:32:07.258Z,1005.37
2018-06-13T02:33:07.281Z,1005.38
2018-06-13T02:34:07.306Z,1005.39
2018-06-13T02:35:07.327Z,1005.38
2018-06-13T02:36:07.351Z,1005.39
2018-06-13T02:37:07.375Z,1005.43
2018-06-13T02:38:07.396Z,1005.45
2018-06-13T02:39:07.420Z,1005.45
2018-06-13T02:40:07.447Z,1005.43
2018-06-13T02:41:07.467Z,1005.47
2018-06-13T02:42:07.489Z,1005.46
2018-06-13T02:44:07.536Z,1005.44
2018-06-13T02:45:07.562Z,1005.49
2018-06-13T02:46:07.583Z,1005.51
2018-06-13T02:47:07.607Z,1005.49
2018-06-13T02:48:07.629Z,1005.5
2018-06-13T02:49:07.652Z,1005.54
2018-06-13T02:50:07.676Z,1005.49
2018-06-13T02:51:07.699Z,1005.57
2018-06-13T02:52:07.727Z,1005.5
2018-06-13T02:53:07.745Z,1005.54
2018-06-13T02:54:07.768Z,1005.49
2018-06-13T02:55:07.790Z,1005.54
2018-06-13T02:56:07.815Z,1005.55
2018-06-13T02:57:07.838Z,1005.52
2018-06-13T02:59:07.885Z,1005.59
2018-06-13T03:00:07.907Z,1005.58
2018-06-13T03:01:07.931Z,1005.61
2018-06-13T03:02:07.955Z,1005.64
2018-06-13T03:03:07.978Z,1005.65
2018-06-13T03:04:08.000Z,1005.64
2018-06-13T03:05:08.025Z,1005.68
2018-06-13T03:06:08.061Z,1005.69
2018-06-13T03:07:08.070Z,1005.65
2018-06-13T03:08:08.094Z,1005.68
2018-06-13T03:09:08.116Z,1005.67
2018-06-13T03:10:08.144Z,1005.75
2018-06-13T03:11:08.161Z,1005.7
2018-06-13T03:12:08.185Z,1005.76
2018-06-13T03:13:08.209Z,1005.74
2018-06-13T03:14:08.232Z,1005.76
2018-06-13T03:15:08.260Z,1005.74
2018-06-13T03:16:08.277Z,1005.72
2018-06-13T03:17:08.300Z,1005.75
2018-06-13T03:18:08.328Z,1005.67
2018-06-13T03:19:08.353Z,1005.71
2018-06-13T03:20:08.370Z,1005.69
2018-06-13T03:21:08.392Z,1005.65
2018-06-13T03:22:08.415Z,1005.69
2018-06-13T03:23:08.438Z,1005.64
2018-06-13T03:24:08.462Z,1005.7
2018-06-13T03:25:08.485Z,1005.65
2018-06-13T03:26:08.508Z,1005.74
2018-06-13T03:27:08.531Z,1005.68
2018-06-13T03:28:08.554Z,1005.72
2018-06-13T03:29:08.579Z,1005.71
2018-06-13T03:31:08.624Z,1005.69
2018-06-13T03:32:08.647Z,1005.73
2018-06-13T03:33:08.669Z,1005.72
2018-06-13T03:34:08.692Z,1005.74
2018-06-13T03:35:08.718Z,1005.76
2018-06-13T03:36:08.738Z,1005.76
2018-06-13T03:37:08.761Z,1005.78
2018-06-13T03:38:08.784Z,1005.79
2018-06-13T03:39:08.808Z,1005.87
2018-06-13T03:40:08.830Z,1005.85
2018-06-13T03:41:08.905Z,1005.88
2018-06-13T03:42:08.876Z,1005.9
2018-06-13T03:43:08.901Z,1005.93
2018-06-13T03:44:08.924Z,1005.9
2018-06-13T03:45:08.946Z,1005.94
2018-06-13T03:47:08.995Z,1005.95
2018-06-13T03:48:09.014Z,1005.96
2018-06-13T03:49:09.038Z,1006.03
2018-06-13T03:50:09.062Z,1006.01
2018-06-13T03:51:09.083Z,1006.01
2018-06-13T03:52:09.107Z,1006.03
2018-06-13T03:53:09.130Z,1006.01
2018-06-13T03:54:09.154Z,1005.99
2018-06-13T03:55:09.180Z,1006.01
2018-06-13T03:56:09.255Z,1006.02
2018-06-13T03:57:09.223Z,1005.93
2018-06-13T03:58:09.247Z,1005.94
2018-06-13T03:59:09.272Z,1005.96
2018-06-13T04:00:09.292Z,1005.92
2018-06-13T04:01:09.314Z,1005.96
2018-06-13T04:03:09.397Z,1005.96
2018-06-13T04:04:09.383Z,1005.97
2018-06-13T04:05:09.444Z,1005.98
2018-06-13T04:06:09.429Z,1006
2018-06-13T04:07:09.470Z,1005.97
2018-06-13T04:08:09.475Z,1005.94
2018-06-13T04:09:09.501Z,1005.96
2018-06-13T04:10:09.523Z,1005.93
2018-06-13T04:11:09.546Z,1005.91
2018-06-13T04:12:09.561Z,1005.91
2018-06-13T04:13:09.592Z,1005.9
2018-06-13T04:14:09.615Z,1005.92
2018-06-13T04:15:09.639Z,1005.89
2018-06-13T04:16:09.662Z,1005.91
2018-06-13T04:17:09.677Z,1005.9
2018-06-13T04:19:09.722Z,1005.92
2018-06-13T04:20:09.746Z,1005.93
2018-06-13T04:21:09.768Z,1005.99
2018-06-13T04:22:09.792Z,1006
2018-06-13T04:23:09.815Z,1005.95
2018-06-13T04:24:09.837Z,1005.96
2018-06-13T04:25:09.859Z,1005.98
2018-06-13T04:26:09.884Z,1005.96
2018-06-13T04:27:09.948Z,1005.98
2018-06-13T04:28:09.929Z,1006
2018-06-13T04:29:09.954Z,1005.94
2018-06-13T04:30:09.979Z,1005.97
2018-06-13T04:31:09.998Z,1006.03
2018-06-13T04:32:10.023Z,1005.98
2018-06-13T04:34:10.074Z,1005.97
2018-06-13T04:35:10.092Z,1005.98
2018-06-13T04:36:10.120Z,1006.02
2018-06-13T04:37:10.139Z,1005.96
2018-06-13T04:38:10.162Z,1006.02
2018-06-13T04:39:10.187Z,1005.94
2018-06-13T04:40:10.208Z,1005.93
2018-06-13T04:41:10.231Z,1005.93
2018-06-13T04:42:10.253Z,1005.96
2018-06-13T04:43:10.277Z,1005.89
2018-06-13T04:44:10.300Z,1005.88
2018-06-13T04:45:10.324Z,1005.91
2018-06-13T04:46:10.345Z,1005.92
2018-06-13T04:47:10.368Z,1005.92
2018-06-13T04:48:10.392Z,1005.94
2018-06-13T04:49:10.415Z,1005.96
2018-06-13T04:50:10.438Z,1005.98
2018-06-13T04:51:10.461Z,1006.02
2018-06-13T04:52:10.484Z,1005.97
2018-06-13T04:53:10.606Z,1006.01
2018-06-13T04:54:10.530Z,1005.98
2018-06-13T04:55:10.552Z,1005.95
2018-06-13T04:56:10.577Z,1005.99
2018-06-13T04:57:10.599Z,1006.01
2018-06-13T04:58:10.623Z,1006.01
2018-06-13T04:59:10.646Z,1005.99
2018-06-13T05:00:10.669Z,1006.03
2018-06-13T05:01:10.694Z,1006.04
2018-06-13T05:02:10.715Z,1006.1
2018-06-13T05:03:10.739Z,1006.12
2018-06-13T05:04:10.761Z,1006.07
2018-06-13T05:06:10.807Z,1006.1
2018-06-13T05:07:10.833Z,1006.11
2018-06-13T05:08:10.854Z,1006.13
2018-06-13T05:09:10.878Z,1006.17
2018-06-13T05:10:10.900Z,1006.18
2018-06-13T05:11:10.924Z,1006.18
2018-06-13T05:12:10.952Z,1006.17
2018-06-13T05:13:10.971Z,1006.15
2018-06-13T05:14:10.993Z,1006.17
2018-06-13T05:15:11.016Z,1006.14
2018-06-13T05:16:11.040Z,1006.17
2018-06-13T05:17:11.062Z,1006.14
2018-06-13T05:18:11.086Z,1006.15
2018-06-13T05:19:11.108Z,1006.18
2018-06-13T05:20:11.132Z,1006.2
2018-06-13T05:22:11.177Z,1006.16
2018-06-13T05:23:11.201Z,1006.17
2018-06-13T05:24:11.225Z,1006.22
2018-06-13T05:25:11.249Z,1006.23
2018-06-13T05:26:11.271Z,1006.25
2018-06-13T05:27:11.295Z,1006.27
2018-06-13T05:28:11.318Z,1006.24
2018-06-13T05:29:11.343Z,1006.26
2018-06-13T05:30:11.367Z,1006.27
2018-06-13T05:31:11.387Z,1006.34
2018-06-13T05:32:11.412Z,1006.32
2018-06-13T05:33:11.434Z,1006.25
2018-06-13T05:34:11.458Z,1006.29
2018-06-13T05:35:11.481Z,1006.29
2018-06-13T05:36:11.505Z,1006.29
2018-06-13T05:38:11.551Z,1006.37
2018-06-13T05:39:11.575Z,1006.37
2018-06-13T05:40:11.598Z,1006.33
2018-06-13T05:41:11.623Z,1006.35
2018-06-13T05:42:11.645Z,1006.34
2018-06-13T05:43:11.671Z,1006.34
2018-06-13T05:44:11.692Z,1006.33
2018-06-13T05:45:11.715Z,1006.36
2018-06-13T05:46:11.740Z,1006.33
2018-06-13T05:47:11.762Z,1006.31
2018-06-13T05:48:11.785Z,1006.37
2018-06-13T05:49:11.809Z,1006.39
2018-06-13T05:50:11.832Z,1006.35
2018-06-13T05:51:11.856Z,1006.44
2018-06-13T05:52:11.878Z,1006.39
2018-06-13T05:54:11.927Z,1006.48
2018-06-13T05:55:11.950Z,1006.51
2018-06-13T05:56:11.973Z,1006.46
2018-06-13T05:57:11.997Z,1006.53
2018-06-13T05:58:12.019Z,1006.51
2018-06-13T05:59:12.043Z,1006.48
2018-06-13T06:00:12.072Z,1006.52
2018-06-13T06:01:12.094Z,1006.52
2018-06-13T06:02:12.114Z,1006.52
2018-06-13T06:03:12.139Z,1006.5
2018-06-13T06:04:12.160Z,1006.52
2018-06-13T06:05:12.185Z,1006.53
2018-06-13T06:06:12.208Z,1006.5
2018-06-13T06:07:12.231Z,1006.55
2018-06-13T06:09:12.278Z,1006.52
2018-06-13T06:10:12.358Z,1006.53
2018-06-13T06:11:12.326Z,1006.54
2018-06-13T06:12:12.348Z,1006.54
2018-06-13T06:13:12.372Z,1006.55
2018-06-13T06:14:12.403Z,1006.56
2018-06-13T06:15:12.419Z,1006.51
2018-06-13T06:16:12.444Z,1006.55
2018-06-13T06:17:12.465Z,1006.56
2018-06-13T06:18:12.547Z,1006.58
2018-06-13T06:19:12.513Z,1006.56
2018-06-13T06:20:12.536Z,1006.56
2018-06-13T06:21:12.562Z,1006.59
2018-06-13T06:22:12.583Z,1006.53
2018-06-13T06:23:12.607Z,1006.59
2018-06-13T06:24:12.631Z,1006.6
2018-06-13T06:25:12.656Z,1006.59
2018-06-13T06:26:12.677Z,1006.6
2018-06-13T06:27:12.701Z,1006.61
2018-06-13T06:28:12.724Z,1006.65
2018-06-13T06:29:12.748Z,1006.64
2018-06-13T06:30:12.771Z,1006.63
2018-06-13T06:31:12.795Z,1006.62
2018-06-13T06:32:12.817Z,1006.64
2018-06-13T06:33:12.841Z,1006.67
2018-06-13T06:34:12.965Z,1006.65
2018-06-13T06:35:12.889Z,1006.63
2018-06-13T06:36:12.914Z,1006.62
2018-06-13T06:37:12.936Z,1006.63
2018-06-13T06:38:12.959Z,1006.66
2018-06-13T06:39:12.980Z,1006.64
2018-06-13T06:41:13.032Z,1006.66
2018-06-13T06:42:13.058Z,1006.65
2018-06-13T06:43:13.075Z,1006.63
2018-06-13T06:44:13.104Z,1006.61
2018-06-13T06:45:13.124Z,1006.59
2018-06-13T06:46:13.145Z,1006.6
2018-06-13T06:47:13.170Z,1006.56
2018-06-13T06:48:13.193Z,1006.56
2018-06-13T06:49:13.218Z,1006.56
2018-06-13T06:50:13.240Z,1006.53
2018-06-13T06:51:13.264Z,1006.54
2018-06-13T06:52:13.294Z,1006.51
2018-06-13T06:53:13.311Z,1006.54
2018-06-13T06:54:13.335Z,1006.53
2018-06-13T06:55:13.360Z,1006.55
2018-06-13T06:57:13.405Z,1006.56
2018-06-13T06:58:13.432Z,1006.51
2018-06-13T06:59:13.452Z,1006.55
2018-06-13T07:00:13.476Z,1006.55
2018-06-13T07:01:13.498Z,1006.54
2018-06-13T07:02:13.523Z,1006.53
2018-06-13T07:03:13.547Z,1006.49
2018-06-13T07:04:13.571Z,1006.49
2018-06-13T07:05:13.603Z,1006.52
2018-06-13T07:06:13.618Z,1006.59
2018-06-13T07:07:13.641Z,1006.56
2018-06-13T07:08:13.665Z,1006.55
2018-06-13T07:09:13.692Z,1006.56
2018-06-13T07:10:13.713Z,1006.56
2018-06-13T07:11:13.736Z,1006.52
2018-06-13T07:13:13.808Z,1006.51
2018-06-13T07:14:13.808Z,1006.44
2018-06-13T07:15:13.832Z,1006.42
2018-06-13T07:16:13.857Z,1006.38
2018-06-13T07:17:13.880Z,1006.39
2018-06-13T07:18:13.905Z,1006.39
2018-06-13T07:19:13.944Z,1006.49
2018-06-13T07:20:13.952Z,1006.47
2018-06-13T07:21:13.976Z,1006.55
2018-06-13T07:22:14.001Z,1006.52
2018-06-13T07:23:14.025Z,1006.52
2018-06-13T07:24:14.053Z,1006.54
2018-06-13T07:25:14.074Z,1006.52
2018-06-13T07:26:14.100Z,1006.44
2018-06-13T07:27:14.123Z,1006.42
2018-06-13T07:29:14.172Z,1006.44
2018-06-13T07:30:14.198Z,1006.44
2018-06-13T07:31:14.221Z,1006.43
2018-06-13T07:32:14.248Z,1006.44
2018-06-13T07:33:14.270Z,1006.47
2018-06-13T07:34:14.295Z,1006.45
2018-06-13T07:35:14.320Z,1006.42
2018-06-13T07:36:14.345Z,1006.39
2018-06-13T07:37:14.370Z,1006.39
2018-06-13T07:38:14.395Z,1006.37
2018-06-13T07:39:14.420Z,1006.33
2018-06-13T07:40:14.447Z,1006.35
2018-06-13T07:41:14.474Z,1006.36
2018-06-13T07:42:14.494Z,1006.3
2018-06-13T07:44:14.545Z,1006.35
2018-06-13T07:45:14.570Z,1006.4
2018-06-13T07:46:14.594Z,1006.41
2018-06-13T07:47:14.620Z,1006.4
2018-06-13T07:48:14.644Z,1006.43
2018-06-13T07:49:14.668Z,1006.39
2018-06-13T07:50:14.693Z,1006.37
2018-06-13T07:51:14.772Z,1006.43
2018-06-13T07:52:14.743Z,1006.44
2018-06-13T07:53:14.767Z,1007.12
2018-06-13T07:54:14.792Z,1006.63
2018-06-13T07:55:14.907Z,1006.54
2018-06-13T07:56:14.842Z,1006.57
2018-06-13T07:57:14.871Z,1006.48
2018-06-13T07:58:14.896Z,1006.5
2018-06-13T07:59:14.919Z,1006.49
2018-06-13T08:00:14.942Z,1006.51
2018-06-13T08:01:14.968Z,1006.46
2018-06-13T08:02:15.060Z,1006.44
2018-06-13T08:03:15.020Z,1006.44
2018-06-13T08:04:15.043Z,1006.45
2018-06-13T08:05:15.069Z,1006.42
2018-06-13T08:06:15.095Z,1006.47
2018-06-13T08:07:15.119Z,1006.44
2018-06-13T08:08:15.226Z,1006.48
2018-06-13T08:09:15.274Z,1006.48
2018-06-13T08:10:15.196Z,1006.44
2018-06-13T08:11:15.221Z,1006.47
2018-06-13T08:12:15.246Z,1007.37
2018-06-13T08:13:15.271Z,1006.6
2018-06-13T08:14:15.296Z,1006.62
2018-06-13T08:16:15.346Z,1006.53
2018-06-13T08:17:15.377Z,1006.54
2018-06-13T08:18:15.397Z,1006.56
2018-06-13T08:19:15.423Z,1006.52
2018-06-13T08:20:15.451Z,1006.5
2018-06-13T08:21:15.474Z,1006.51
2018-06-13T08:22:15.499Z,1006.52
2018-06-13T08:23:15.525Z,1006.52
2018-06-13T08:24:15.551Z,1006.54
2018-06-13T08:25:15.576Z,1006.53
2018-06-13T08:26:15.602Z,1006.51
2018-06-13T08:27:15.630Z,1006.53
2018-06-13T08:28:15.657Z,1006.58
2018-06-13T08:29:15.679Z,1006.57
2018-06-13T08:30:15.703Z,1006.62
2018-06-13T08:32:15.756Z,1006.63
2018-06-13T08:33:15.785Z,1006.65
2018-06-13T08:34:15.806Z,1006.64
2018-06-13T08:35:15.835Z,1006.66
2018-06-13T08:36:15.858Z,1006.61
2018-06-13T08:37:15.882Z,1006.59
2018-06-13T08:38:15.906Z,1006.57
2018-06-13T08:39:15.933Z,1006.54
2018-06-13T08:40:15.957Z,1006.57
2018-06-13T08:41:15.982Z,1006.55
2018-06-13T08:42:16.012Z,1006.58
2018-06-13T08:43:16.035Z,1007.05
2018-06-13T08:44:16.059Z,1006.82
2018-06-13T08:45:16.086Z,1006.65
2018-06-13T08:46:16.119Z,1006.62
2018-06-13T08:48:16.162Z,1006.72
2018-06-13T08:49:16.189Z,1006.87
2018-06-13T08:50:16.213Z,1006.95
2018-06-13T08:51:16.240Z,1006.92
2018-06-13T08:52:16.266Z,1006.64
2018-06-13T08:53:16.293Z,1006.61
2018-06-13T08:54:16.320Z,1006.6
2018-06-13T08:55:16.346Z,1006.58
2018-06-13T08:56:16.408Z,1006.54
2018-06-13T08:57:16.400Z,1006.61
2018-06-13T08:58:16.425Z,1006.56
2018-06-13T08:59:16.534Z,1006.63
2018-06-13T09:00:16.480Z,1006.56
2018-06-13T09:01:16.507Z,1006.62
2018-06-13T09:02:16.533Z,1006.6
2018-06-13T09:04:16.586Z,1006.58
2018-06-13T09:05:16.613Z,1006.64
2018-06-13T09:06:16.637Z,1006.61
2018-06-13T09:07:16.664Z,1006.58
2018-06-13T09:08:16.689Z,1006.61
2018-06-13T09:09:16.715Z,1006.63
2018-06-13T09:10:16.741Z,1006.6
2018-06-13T09:11:16.775Z,1006.64
2018-06-13T09:12:16.792Z,1006.65
2018-06-13T09:13:16.818Z,1006.62
2018-06-13T09:14:16.843Z,1006.66
2018-06-13T09:15:16.869Z,1006.62
2018-06-13T09:16:16.893Z,1006.63
2018-06-13T09:17:16.921Z,1006.66
2018-06-13T09:19:16.972Z,1006.67
2018-06-13T09:20:17.095Z,1006.63
2018-06-13T09:21:17.024Z,1006.66
2018-06-13T09:22:17.047Z,1006.65
2018-06-13T09:23:17.073Z,1006.67
2018-06-13T09:24:17.097Z,1006.66
2018-06-13T09:25:17.123Z,1006.66
2018-06-13T09:26:17.152Z,1006.66
2018-06-13T09:27:17.173Z,1006.63
2018-06-13T09:28:17.199Z,1006.68
2018-06-13T09:29:17.225Z,1006.67
2018-06-13T09:30:17.250Z,1006.69
2018-06-13T09:31:17.315Z,1006.7
2018-06-13T09:32:17.300Z,1006.63
2018-06-13T09:33:17.326Z,1006.67
2018-06-13T09:34:17.350Z,1006.69
2018-06-13T09:35:17.377Z,1006.65
2018-06-13T09:36:17.403Z,1006.67
2018-06-13T09:37:17.466Z,1006.67
2018-06-13T09:38:17.453Z,1006.64
2018-06-13T09:39:17.479Z,1006.69
2018-06-13T09:40:17.510Z,1006.67
2018-06-13T09:41:17.531Z,1006.62
2018-06-13T09:42:17.569Z,1006.65
2018-06-13T09:43:17.582Z,1006.63
2018-06-13T09:44:17.609Z,1006.67
2018-06-13T09:45:17.641Z,1006.69
2018-06-13T09:46:17.661Z,1006.69
2018-06-13T09:47:23.455Z,1006.66
2018-06-13T09:48:17.712Z,1006.71
2018-06-13T09:49:17.838Z,1006.7
2018-06-13T09:51:17.791Z,1006.71
2018-06-13T09:52:17.815Z,1006.72
2018-06-13T09:53:17.839Z,1006.71
2018-06-13T09:54:17.865Z,1006.72
2018-06-13T09:55:17.891Z,1006.68
2018-06-13T09:56:17.917Z,1006.72
2018-06-13T09:57:17.941Z,1006.68
2018-06-13T09:58:17.971Z,1006.73
2018-06-13T09:59:17.995Z,1006.69
2018-06-13T10:00:18.017Z,1006.63
2018-06-13T10:01:18.045Z,1006.68
2018-06-13T10:02:18.067Z,1006.64
2018-06-13T10:03:18.092Z,1006.69
2018-06-13T10:04:18.117Z,1006.7
2018-06-13T10:05:18.141Z,1006.67
2018-06-13T10:07:18.193Z,1006.73
2018-06-13T10:08:18.317Z,1006.74
2018-06-13T10:09:18.242Z,1006.64
2018-06-13T10:10:18.267Z,1006.64
2018-06-13T10:11:18.310Z,1006.65
2018-06-13T10:12:18.317Z,1006.64
2018-06-13T10:13:18.341Z,1006.71
2018-06-13T10:14:18.367Z,1006.67
2018-06-13T10:15:18.390Z,1006.68
2018-06-13T10:16:18.416Z,1006.7
2018-06-13T10:17:18.442Z,1006.74
2018-06-13T10:18:18.466Z,1006.72
2018-06-13T10:19:18.491Z,1006.75
2018-06-13T10:20:18.516Z,1006.75
2018-06-13T10:21:18.541Z,1006.76
2018-06-13T10:23:18.591Z,1006.76
2018-06-13T10:24:18.615Z,1006.74
2018-06-13T10:25:18.641Z,1006.77
2018-06-13T10:26:18.666Z,1006.74
2018-06-13T10:27:18.693Z,1006.79
2018-06-13T10:28:18.717Z,1006.75
2018-06-13T10:29:18.741Z,1006.82
2018-06-13T10:30:18.765Z,1006.84
2018-06-13T10:31:18.792Z,1006.86
2018-06-13T10:32:18.817Z,1006.88
2018-06-13T10:33:18.845Z,1006.87
2018-06-13T10:34:18.871Z,1006.83
2018-06-13T10:35:18.892Z,1006.84
2018-06-13T10:36:18.917Z,1006.87
2018-06-13T10:37:18.945Z,1006.82
2018-06-13T10:39:18.993Z,1006.87
2018-06-13T10:40:19.022Z,1006.84
2018-06-13T10:41:19.043Z,1006.9
2018-06-13T10:42:19.068Z,1006.84
2018-06-13T10:43:19.095Z,1006.86
2018-06-13T10:44:19.120Z,1006.87
2018-06-13T10:45:19.145Z,1006.89
2018-06-13T10:46:19.172Z,1006.86
2018-06-13T10:47:19.198Z,1006.79
2018-06-13T10:48:19.223Z,1006.85
2018-06-13T10:49:19.249Z,1006.88
2018-06-13T10:50:19.276Z,1006.86
2018-06-13T10:51:19.301Z,1006.83
2018-06-13T10:52:19.327Z,1006.85
2018-06-13T10:54:19.379Z,1006.85
2018-06-13T10:55:19.405Z,1006.82
2018-06-13T10:56:19.431Z,1006.87
2018-06-13T10:57:19.457Z,1006.88
2018-06-13T10:58:19.482Z,1006.84
2018-06-13T10:59:19.508Z,1006.86
2018-06-13T11:00:19.534Z,1006.87
2018-06-13T11:01:19.562Z,1006.8
2018-06-13T11:02:19.585Z,1006.83
2018-06-13T11:03:19.611Z,1006.83
2018-06-13T11:04:19.638Z,1006.84
2018-06-13T11:05:19.713Z,1006.85
2018-06-13T11:06:19.690Z,1006.86
2018-06-13T11:07:19.716Z,1006.9
2018-06-13T11:08:19.742Z,1006.86
2018-06-13T11:09:19.769Z,1006.88
2018-06-13T11:10:19.793Z,1006.82
2018-06-13T11:11:19.820Z,1006.86
2018-06-13T11:12:19.847Z,1006.82
2018-06-13T11:13:19.876Z,1006.82
2018-06-13T11:14:19.898Z,1006.85
2018-06-13T11:15:19.926Z,1006.87
2018-06-13T11:16:19.951Z,1006.84
2018-06-13T11:17:19.977Z,1006.82
2018-06-13T11:18:20.053Z,1006.83
2018-06-13T11:19:20.032Z,1006.84
2018-06-13T11:20:20.108Z,1006.86
2018-06-13T11:21:20.087Z,1006.83
2018-06-13T11:22:20.107Z,1006.91
2018-06-13T11:23:20.133Z,1006.85
2018-06-13T11:24:20.158Z,1006.93
2018-06-13T11:26:20.210Z,1007.02
2018-06-13T11:27:20.244Z,1007.02
2018-06-13T11:28:20.261Z,1006.92
2018-06-13T11:29:20.290Z,1006.97
2018-06-13T11:30:20.315Z,1007.02
2018-06-13T11:31:20.339Z,1007.01
2018-06-13T11:32:20.364Z,1007.01
2018-06-13T11:33:20.392Z,1007.08
2018-06-13T11:34:20.415Z,1007.08
2018-06-13T11:35:20.440Z,1007.13
2018-06-13T11:36:20.466Z,1007.2
2018-06-13T11:37:20.491Z,1007.12
2018-06-13T11:38:20.517Z,1007.11
2018-06-13T11:39:20.541Z,1007.09
2018-06-13T11:40:20.567Z,1007.09
2018-06-13T11:42:20.622Z,1007.13
2018-06-13T11:43:20.643Z,1007.07
2018-06-13T11:44:20.668Z,1007.14
2018-06-13T11:45:20.693Z,1007.11
2018-06-13T11:46:20.718Z,1007.16
2018-06-13T11:47:20.743Z,1007.07
2018-06-13T11:48:20.769Z,1007.18
2018-06-13T11:49:20.800Z,1007.2
2018-06-13T11:50:20.818Z,1007.11
2018-06-13T11:51:20.843Z,1007.16
2018-06-13T11:52:20.868Z,1007.16
2018-06-13T11:53:20.898Z,1007.16
2018-06-13T11:54:20.919Z,1007.15
2018-06-13T11:55:20.943Z,1007.19
2018-06-13T11:56:20.976Z,1007.2
2018-06-13T11:58:21.017Z,1007.16
2018-06-13T11:59:21.043Z,1007.21
2018-06-13T12:00:21.081Z,1007.22
2018-06-13T12:01:21.094Z,1007.16
2018-06-13T12:02:21.176Z,1007.21
2018-06-13T12:03:21.142Z,1007.21
2018-06-13T12:04:21.167Z,1007.18
2018-06-13T12:05:21.191Z,1007.24
2018-06-13T12:06:21.216Z,1007.24
2018-06-13T12:07:21.241Z,1007.23
2018-06-13T12:08:21.265Z,1007.24
2018-06-13T12:09:21.293Z,1007.26
2018-06-13T12:10:21.315Z,1007.27
2018-06-13T12:11:21.342Z,1007.23
2018-06-13T12:12:21.364Z,1007.28
2018-06-13T12:14:21.419Z,1007.23
2018-06-13T12:15:21.440Z,1007.24
2018-06-13T12:16:21.463Z,1007.27
2018-06-13T12:17:21.488Z,1007.26
2018-06-13T12:18:21.514Z,1007.25
2018-06-13T12:19:21.537Z,1007.2
2018-06-13T12:20:21.562Z,1007.23
2018-06-13T12:21:21.588Z,1007.21
2018-06-13T12:22:21.612Z,1007.21
2018-06-13T12:23:21.636Z,1007.21
2018-06-13T12:24:21.663Z,1007.26
2018-06-13T12:25:21.687Z,1007.19
2018-06-13T12:26:21.712Z,1007.25
2018-06-13T12:27:21.737Z,1007.21
2018-06-13T12:29:21.788Z,1007.24
2018-06-13T12:30:21.818Z,1007.21
2018-06-13T12:31:21.836Z,1007.23
2018-06-13T12:32:21.861Z,1007.2
2018-06-13T12:33:21.887Z,1007.2
2018-06-13T12:34:21.940Z,1007.21
2018-06-13T12:35:21.935Z,1007.19
2018-06-13T12:36:21.961Z,1007.2
2018-06-13T12:37:21.986Z,1007.24
2018-06-13T12:38:22.010Z,1007.21
2018-06-13T12:39:22.036Z,1007.2
2018-06-13T12:40:22.062Z,1007.17
2018-06-13T12:41:22.085Z,1007.18
2018-06-13T12:42:22.110Z,1007.11
2018-06-13T12:43:22.136Z,1007.16
2018-06-13T12:44:22.160Z,1007.18
2018-06-13T12:45:22.184Z,1007.21
2018-06-13T12:46:22.210Z,1007.23
2018-06-13T12:47:22.235Z,1007.21